createdAt,value
2018-03-28T12:35:22.182Z,33.00
2018-03-28T12:39:24.837Z,33.20
2018-03-28T12:43:28.388Z,35.60
2018-03-28T12:47:31.150Z,35.50
2018-03-28T12:51:34.700Z,36.00
2018-03-28T12:55:37.453Z,36.00
2018-03-28T12:59:40.125Z,34.00
2018-03-28T13:03:43.556Z,33.10
2018-03-28T13:07:47.049Z,35.10
2018-03-28T13:11:49.729Z,35.00
2018-03-28T13:15:54.353Z,33.80
2018-03-28T13:19:57.035Z,33.10
2018-03-28T13:24:00.574Z,35.00
2018-03-28T13:28:03.241Z,34.90
2018-03-28T13:32:05.967Z,33.70
2018-03-28T13:36:08.720Z,36.90
2018-03-28T13:40:11.431Z,39.00
2018-03-28T13:44:14.175Z,40.20
2018-03-28T13:48:16.937Z,42.90
2018-03-28T13:52:19.657Z,42.60
2018-03-28T13:56:22.415Z,41.10
2018-03-28T14:00:25.085Z,42.50
2018-03-28T14:04:28.611Z,43.60
2018-03-28T14:08:32.377Z,43.50
2018-03-28T14:12:35.114Z,44.20
2018-03-28T14:16:38.581Z,41.90
2018-03-28T14:20:41.425Z,41.80
2018-03-28T14:24:45.094Z,45.00
2018-03-28T14:28:47.800Z,45.00
2018-03-28T14:32:51.383Z,47.20
2018-03-28T14:36:54.116Z,47.20
2018-03-28T14:40:57.441Z,48.20
2018-03-28T14:45:00.833Z,47.20
2018-03-28T14:49:04.394Z,46.90
2018-03-28T14:53:08.059Z,50.10
2018-03-28T14:57:10.741Z,50.10
2018-03-28T15:01:13.438Z,50.90
2018-03-28T15:05:16.368Z,49.30
2018-03-28T15:09:19.233Z,51.00
2018-03-28T15:13:22.957Z,50.80
2018-03-28T15:17:26.545Z,50.10
2018-03-28T15:21:29.279Z,50.10
2018-03-28T15:25:32.113Z,50.50
2018-03-28T15:29:35.594Z,52.10
2018-03-28T15:33:38.404Z,52.20
2018-03-28T15:37:42.001Z,51.00
2018-03-28T15:41:44.755Z,50.90
2018-03-28T15:45:47.595Z,52.30
2018-03-28T15:49:50.583Z,53.50
2018-03-28T15:53:53.459Z,53.30
2018-03-28T15:57:56.645Z,52.80
2018-03-28T16:02:00.131Z,53.40
2018-03-28T16:06:04.855Z,53.30
2018-03-28T16:10:08.478Z,54.80
2018-03-28T16:14:12.039Z,56.10
2018-03-28T16:18:15.507Z,57.00
2018-03-28T16:22:18.642Z,56.90
2018-03-28T16:26:21.373Z,57.00
2018-03-28T16:30:24.152Z,57.20
2018-03-28T16:34:26.987Z,57.60
2018-03-28T16:38:30.564Z,60.00
2018-03-28T16:42:34.125Z,60.70
2018-03-28T16:46:36.845Z,60.70
2018-03-28T16:50:39.565Z,60.20
2018-03-28T16:54:43.140Z,63.90
2018-03-28T16:58:45.853Z,63.90
2018-03-28T17:02:48.602Z,64.10
2018-03-28T17:06:51.300Z,65.10
2018-03-28T17:10:54.058Z,66.10
2018-03-28T17:14:57.656Z,68.10
2018-03-28T17:19:00.511Z,68.00
2018-03-28T17:23:04.329Z,69.20
2018-03-28T17:27:07.212Z,69.10
2018-03-28T17:31:10.311Z,70.00
2018-03-28T17:35:13.800Z,70.30
2018-03-28T17:39:16.706Z,70.40
2018-03-28T17:43:20.189Z,71.10
2018-03-28T17:47:22.923Z,71.10
2018-03-28T17:51:25.640Z,72.20
2018-03-28T17:55:28.481Z,71.20
2018-03-28T17:59:31.337Z,72.00
2018-03-28T18:03:34.076Z,72.00
2018-03-28T18:07:37.636Z,72.00
2018-03-28T18:11:41.247Z,71.90
2018-03-28T18:15:44.739Z,71.90
2018-03-28T18:19:47.522Z,71.80
2018-03-28T18:23:50.385Z,72.00
2018-03-28T18:27:53.642Z,71.70
2018-03-28T18:31:56.454Z,72.80
2018-03-28T18:35:59.163Z,72.80
2018-03-28T18:40:02.846Z,73.10
2018-03-28T18:44:05.869Z,73.10
2018-03-28T18:48:08.610Z,73.10
2018-03-28T18:52:12.275Z,73.60
2018-03-28T18:56:15.269Z,73.60
2018-03-28T19:00:17.948Z,73.70
2018-03-28T19:04:20.824Z,74.30
2018-03-28T19:08:23.686Z,74.60
2018-03-28T19:12:27.202Z,75.50
2018-03-28T19:16:30.691Z,76.00
2018-03-28T19:20:33.495Z,76.00
2018-03-28T19:24:36.290Z,76.00
2018-03-28T19:28:39.155Z,76.40
2018-03-28T19:32:42.030Z,76.70
2018-03-28T19:36:44.767Z,77.40
2018-03-28T19:40:47.480Z,77.90
2018-03-28T19:44:50.212Z,77.40
2018-03-28T19:48:53.117Z,77.50
2018-03-28T19:52:56.058Z,77.90
2018-03-28T19:57:00.350Z,78.10
2018-03-28T20:01:04.103Z,77.60
2018-03-28T20:05:06.812Z,78.10
2018-03-28T20:09:09.819Z,77.80
2018-03-28T20:13:12.541Z,77.80
2018-03-28T20:17:15.314Z,78.40
2018-03-28T20:21:18.145Z,78.40
2018-03-28T20:25:20.868Z,79.20
2018-03-28T20:29:23.568Z,78.40
2018-03-28T20:33:26.383Z,79.40
2018-03-28T20:37:29.094Z,79.30
2018-03-28T20:41:31.992Z,78.70
2018-03-28T20:45:34.692Z,79.00
2018-03-28T20:49:37.415Z,79.50
2018-03-28T20:53:40.933Z,79.40
2018-03-28T20:57:48.278Z,79.20
2018-03-28T21:01:50.990Z,79.20
2018-03-28T21:05:53.842Z,79.30
2018-03-28T21:09:56.577Z,79.30
2018-03-28T21:13:59.370Z,79.60
2018-03-28T21:18:02.175Z,79.10
2018-03-28T21:22:04.912Z,79.30
2018-03-28T21:26:08.477Z,80.30
2018-03-28T21:30:11.982Z,80.20
2018-03-28T21:34:14.730Z,80.20
2018-03-28T21:38:17.494Z,79.70
2018-03-28T21:42:20.363Z,80.00
2018-03-28T21:46:23.227Z,79.80
2018-03-28T21:50:26.758Z,80.30
2018-03-28T21:54:29.485Z,80.20
2018-03-28T21:58:33.051Z,80.10
2018-03-28T22:02:36.537Z,80.90
2018-03-28T22:06:39.244Z,80.20
2018-03-28T22:10:42.108Z,80.20
2018-03-28T22:14:44.812Z,80.20
2018-03-28T22:18:47.554Z,80.20
2018-03-28T22:22:51.033Z,80.00
2018-03-28T22:26:53.823Z,80.00
2018-03-28T22:30:56.539Z,80.10
2018-03-28T22:34:59.428Z,80.10
2018-03-28T22:39:02.152Z,80.00
2018-03-28T22:43:05.830Z,80.00
2018-03-28T22:47:08.523Z,80.00
2018-03-28T22:51:11.255Z,80.00
2018-03-28T22:55:14.066Z,80.30
2018-03-28T22:59:17.580Z,80.00
2018-03-28T23:03:21.056Z,80.30
2018-03-28T23:07:23.916Z,80.30
2018-03-28T23:11:26.639Z,80.10
2018-03-28T23:15:29.500Z,80.00
2018-03-28T23:19:32.246Z,80.00
2018-03-28T23:23:34.997Z,80.60
2018-03-28T23:27:37.812Z,80.00
2018-03-28T23:31:40.614Z,80.50
2018-03-28T23:35:43.314Z,80.60
2018-03-28T23:39:46.138Z,80.70
2018-03-28T23:43:48.835Z,80.80
2018-03-28T23:47:51.789Z,81.00
2018-03-28T23:51:54.486Z,81.10
2018-03-28T23:55:57.288Z,80.40
